Time;durP1;ratioP1;P1;durP2;ratioP2;P2;SDS_P1;SDS_P2;PMS_P1;PMS_P2;Temp;Humidity;BMP_temperature;BMP_pressure;BME280_temperature;BME280_humidity;BME280_pressure;Samples;Min_cycle;Max_cycle;Signal;HPM_P1;HPM_P2
2022/06/10 00:01:03;;;;;;;34.25;29.08;;;9.70;99.90;;;;;;5017102;28;20045;-72
2022/06/10 00:03:31;;;;;;;32.58;29.17;;;9.70;99.90;;;;;;5017551;28;20469;-74
2022/06/10 00:06:03;;;;;;;33.60;30.02;;;9.70;99.90;;;;;;5018929;28;20562;-72
2022/06/10 00:08:33;;;;;;;30.50;27.15;;;9.70;99.90;;;;;;4999095;28;20120;-72
2022/06/10 00:11:01;;;;;;;30.20;27.27;;;9.70;99.90;;;;;;4998014;28;20046;-72
2022/06/10 00:13:32;;;;;;;31.73;27.20;;;9.70;99.90;;;;;;4999263;28;20102;-74
2022/06/10 00:16:00;;;;;;;32.33;28.85;;;9.60;99.90;;;;;;4997220;28;20292;-72
2022/06/10 00:18:29;;;;;;;32.20;28.80;;;9.60;99.90;;;;;;4998706;28;20485;-72
2022/06/10 00:20:57;;;;;;;29.35;26.63;;;9.50;99.90;;;;;;4992042;28;20046;-72
2022/06/10 00:23:24;;;;;;;30.98;27.70;;;9.50;99.90;;;;;;4999099;28;20490;-72
2022/06/10 00:25:50;;;;;;;32.05;28.10;;;9.50;99.90;;;;;;4996525;23;20495;-72
2022/06/10 00:28:18;;;;;;;34.80;29.73;;;9.50;99.90;;;;;;4959675;28;20103;-74
2022/06/10 00:30:45;;;;;;;36.03;31.38;;;9.40;99.90;;;;;;4963027;28;20046;-73
2022/06/10 00:33:12;;;;;;;34.90;30.35;;;9.40;99.90;;;;;;4964896;28;20099;-73
2022/06/10 00:35:40;;;;;;;35.00;30.75;;;9.30;99.90;;;;;;4966321;28;20074;-73
2022/06/10 00:38:07;;;;;;;37.30;31.38;;;9.30;99.90;;;;;;4958535;28;20469;-73
2022/06/10 00:40:40;;;;;;;32.28;28.65;;;9.30;99.90;;;;;;4964429;28;20051;-73
2022/06/10 00:43:16;;;;;;;32.22;28.77;;;9.30;99.90;;;;;;4965131;28;20093;-74
2022/06/10 00:46:22;;;;;;;42.90;31.60;;;9.30;99.90;;;;;;4963413;28;20046;-73
2022/06/10 00:48:54;;;;;;;35.47;31.67;;;9.40;99.90;;;;;;4954980;28;20594;-74
2022/06/10 00:51:35;;;;;;;35.17;29.70;;;9.30;99.90;;;;;;4950898;28;20071;-73
2022/06/10 00:54:25;;;;;;;32.00;28.60;;;9.20;99.90;;;;;;4966838;28;20054;-73
2022/06/10 00:57:11;;;;;;;35.45;30.25;;;9.30;99.90;;;;;;4965846;28;20053;-73
2022/06/10 00:59:39;;;;;;;33.30;29.60;;;9.30;99.90;;;;;;4959609;28;20286;-73
2022/06/10 01:02:13;;;;;;;35.65;29.98;;;9.30;99.90;;;;;;4963828;28;20166;-73
2022/06/10 01:04:40;;;;;;;40.58;30.20;;;9.30;99.90;;;;;;4965465;28;20363;-73
2022/06/10 01:07:09;;;;;;;39.60;30.95;;;9.30;99.90;;;;;;4964735;28;20093;-73
2022/06/10 01:09:37;;;;;;;36.58;31.00;;;9.20;99.90;;;;;;4958058;28;20089;-73
2022/06/10 01:12:15;;;;;;;41.00;29.48;;;9.20;99.90;;;;;;4964119;28;20259;-73
2022/06/10 01:14:56;;;;;;;41.25;30.77;;;9.10;99.90;;;;;;4965157;28;20352;-73
2022/06/10 01:17:29;;;;;;;37.80;30.58;;;9.10;99.90;;;;;;4963812;28;20081;-73
2022/06/10 01:20:08;;;;;;;35.58;30.30;;;9.00;99.90;;;;;;4948618;28;20039;-73
2022/06/10 01:22:44;;;;;;;32.20;28.88;;;8.90;99.90;;;;;;4951917;28;20138;-73
2022/06/10 01:25:48;;;;;;;35.17;28.15;;;8.90;99.90;;;;;;4975646;28;20102;-73
2022/06/10 01:28:42;;;;;;;36.65;29.77;;;8.90;99.90;;;;;;4979351;28;20043;-73
2022/06/10 01:31:28;;;;;;;35.88;30.27;;;8.90;99.90;;;;;;4968645;28;20114;-73
2022/06/10 01:34:01;;;;;;;37.42;32.08;;;8.80;99.90;;;;;;4979019;28;20042;-73
2022/06/10 01:36:37;;;;;;;43.72;33.78;;;8.80;99.90;;;;;;4983139;28;20101;-73
2022/06/10 01:39:34;;;;;;;40.58;30.77;;;8.80;99.90;;;;;;4973129;28;20057;-73
2022/06/10 01:42:26;;;;;;;38.83;32.33;;;8.80;99.90;;;;;;4983200;28;20253;-73
2022/06/10 01:45:22;;;;;;;41.97;32.80;;;8.70;99.90;;;;;;4965817;28;20141;-73
2022/06/10 01:48:10;;;;;;;39.03;32.40;;;8.70;99.90;;;;;;4975620;28;20406;-73
2022/06/10 01:50:44;;;;;;;32.50;28.00;;;8.60;99.90;;;;;;4981032;28;20057;-74
2022/06/10 01:53:18;;;;;;;33.03;28.13;;;8.60;99.90;;;;;;4984591;28;20074;-73
2022/06/10 01:55:47;;;;;;;37.17;30.58;;;8.40;99.90;;;;;;4983691;28;20574;-75
2022/06/10 01:58:31;;;;;;;40.53;32.00;;;8.40;99.90;;;;;;4979035;28;20224;-73
2022/06/10 02:01:02;;;;;;;44.15;33.45;;;8.30;99.90;;;;;;4970034;28;20053;-74
2022/06/10 02:03:50;;;;;;;64.85;33.40;;;8.30;99.90;;;;;;4969906;28;20575;-74
2022/06/10 02:06:24;;;;;;;50.47;34.10;;;8.30;99.90;;;;;;4999130;28;20052;-74
2022/06/10 02:08:57;;;;;;;44.80;34.65;;;8.30;99.90;;;;;;4973101;28;20150;-73
2022/06/10 02:11:26;;;;;;;38.17;30.67;;;8.40;99.90;;;;;;4963769;28;20675;-74
2022/06/10 02:14:14;;;;;;;34.17;29.88;;;8.30;99.90;;;;;;4966302;28;20141;-73
2022/06/10 02:16:47;;;;;;;41.47;33.05;;;8.10;99.90;;;;;;4982951;28;20050;-74
2022/06/10 02:19:20;;;;;;;38.45;32.40;;;8.20;99.90;;;;;;4976270;28;20140;-74
2022/06/10 02:21:52;;;;;;;40.63;32.90;;;8.10;99.90;;;;;;4981957;28;20473;-73
2022/06/10 02:24:28;;;;;;;36.40;31.40;;;8.10;99.90;;;;;;4981694;28;20046;-74
2022/06/10 02:27:00;;;;;;;42.20;32.08;;;8.00;99.90;;;;;;4984826;28;20428;-74
2022/06/10 02:29:49;;;;;;;50.40;35.22;;;8.00;99.90;;;;;;4976725;28;20152;-74
2022/06/10 02:32:16;;;;;;;51.42;37.75;;;8.00;99.90;;;;;;4988054;28;20338;-73
2022/06/10 02:34:43;;;;;;;54.22;38.97;;;8.10;99.90;;;;;;4980780;28;20049;-73
2022/06/10 02:37:27;;;;;;;52.15;37.88;;;8.00;99.90;;;;;;4972703;28;20066;-73
2022/06/10 02:40:16;;;;;;;47.28;36.30;;;7.90;99.90;;;;;;4985562;28;20054;-73
2022/06/10 02:42:55;;;;;;;44.50;36.20;;;7.90;99.90;;;;;;4989054;28;20046;-73
2022/06/10 02:45:42;;;;;;;46.38;35.05;;;7.90;99.90;;;;;;4975310;28;20046;-73
2022/06/10 02:48:32;;;;;;;42.63;33.30;;;7.80;99.90;;;;;;4986789;28;20504;-73
2022/06/10 02:51:00;;;;;;;44.70;34.80;;;7.80;99.90;;;;;;4979727;28;20075;-73
2022/06/10 02:53:27;;;;;;;48.95;35.90;;;7.70;99.90;;;;;;4969455;28;20034;-73
2022/06/10 02:55:54;;;;;;;41.55;34.78;;;7.80;99.90;;;;;;4976566;28;20584;-73
2022/06/10 03:01:27;;;;;;;58.65;39.53;;;7.90;99.90;;;;;;4982637;28;20154;-73
2022/06/10 03:04:06;;;;;;;54.03;39.13;;;8.00;99.90;;;;;;4986450;28;20086;-73
2022/06/10 03:06:50;;;;;;;55.35;39.42;;;8.00;99.90;;;;;;4967455;28;20090;-73
2022/06/10 03:09:19;;;;;;;61.28;41.28;;;7.90;99.90;;;;;;4976759;28;20049;-73
2022/06/10 03:12:08;;;;;;;58.28;39.42;;;7.90;99.90;;;;;;4968275;28;20085;-73
2022/06/10 03:14:35;;;;;;;56.85;38.63;;;7.80;99.90;;;;;;4966309;28;20078;-73
2022/06/10 03:17:29;;;;;;;52.90;36.88;;;7.70;99.90;;;;;;4980172;28;20480;-73
2022/06/10 03:20:05;;;;;;;48.22;33.10;;;7.80;99.90;;;;;;4964424;28;20047;-74
2022/06/10 03:22:53;;;;;;;43.78;31.42;;;7.70;99.90;;;;;;4984150;28;20089;-73
2022/06/10 03:25:28;;;;;;;38.35;30.55;;;7.60;99.90;;;;;;5000444;28;20054;-73
2022/06/10 03:28:25;;;;;;;43.00;34.15;;;7.60;99.90;;;;;;4984088;28;20054;-73
2022/06/10 03:30:57;;;;;;;43.08;32.65;;;7.60;99.90;;;;;;4999707;28;20073;-73
2022/06/10 03:33:41;;;;;;;43.38;33.50;;;7.60;99.90;;;;;;5006160;28;20578;-73
2022/06/10 03:36:16;;;;;;;46.20;34.10;;;7.60;99.90;;;;;;4986883;28;20100;-73
2022/06/10 03:38:46;;;;;;;44.88;33.95;;;7.50;99.90;;;;;;4999804;28;20053;-73
2022/06/10 03:41:32;;;;;;;49.08;35.63;;;7.60;99.90;;;;;;5005314;28;20096;-73
2022/06/10 03:44:02;;;;;;;46.15;35.85;;;7.50;99.90;;;;;;4988935;28;20438;-73
2022/06/10 03:46:31;;;;;;;53.70;35.92;;;7.60;99.90;;;;;;4988853;28;20057;-73
2022/06/10 03:49:04;;;;;;;43.38;34.13;;;7.60;99.90;;;;;;5006328;28;20073;-73
2022/06/10 03:51:32;;;;;;;43.40;34.60;;;7.60;99.90;;;;;;5003226;28;20215;-73
2022/06/10 03:53:58;;;;;;;54.85;37.25;;;7.60;99.90;;;;;;4968567;28;20054;-73
2022/06/10 03:56:25;;;;;;;50.75;36.78;;;7.60;99.90;;;;;;4968009;28;20061;-73
2022/06/10 03:58:52;;;;;;;42.05;34.35;;;7.70;99.90;;;;;;4983276;28;20623;-73
2022/06/10 04:01:19;;;;;;;45.85;34.33;;;7.80;99.90;;;;;;4985928;28;20442;-73
2022/06/10 04:03:46;;;;;;;51.63;35.28;;;7.90;99.90;;;;;;4967220;28;20054;-73
2022/06/10 04:06:14;;;;;;;47.88;34.65;;;7.90;99.90;;;;;;4971654;28;20046;-73
2022/06/10 04:09:01;;;;;;;54.50;36.65;;;8.10;99.90;;;;;;5000311;28;20077;-73
2022/06/10 04:11:32;;;;;;;47.38;35.63;;;8.00;99.90;;;;;;4972886;28;20075;-73
2022/06/10 04:13:59;;;;;;;46.63;36.17;;;8.10;99.90;;;;;;4986728;28;20085;-73
2022/06/10 04:16:27;;;;;;;46.10;35.03;;;8.10;99.90;;;;;;4987533;28;20053;-73
2022/06/10 04:18:54;;;;;;;41.95;33.08;;;8.10;99.90;;;;;;5005261;28;20568;-73
2022/06/10 04:21:21;;;;;;;43.28;32.42;;;8.00;99.90;;;;;;4996172;28;20080;-74
2022/06/10 04:23:48;;;;;;;43.97;33.28;;;8.20;99.90;;;;;;4968890;28;20060;-74
2022/06/10 04:26:14;;;;;;;49.35;36.30;;;8.30;99.90;;;;;;5002840;28;20068;-73
2022/06/10 04:28:41;;;;;;;40.22;31.90;;;8.50;99.90;;;;;;5001360;28;20046;-73
2022/06/10 04:31:08;;;;;;;47.35;32.83;;;8.70;99.90;;;;;;4985091;28;20206;-73
2022/06/10 04:33:35;;;;;;;41.20;29.55;;;8.90;99.90;;;;;;4987372;28;20390;-73
2022/06/10 04:36:03;;;;;;;37.67;30.05;;;9.30;99.90;;;;;;5004005;28;20041;-74
2022/06/10 04:38:30;;;;;;;39.58;29.30;;;9.50;99.90;;;;;;4978256;28;20496;-74
2022/06/10 04:40:58;;;;;;;28.73;25.73;;;9.90;99.90;;;;;;4986778;28;20172;-74
2022/06/10 04:43:26;;;;;;;29.67;26.58;;;10.30;99.90;;;;;;5005743;28;20412;-74
2022/06/10 04:45:56;;;;;;;33.15;29.00;;;10.40;99.90;;;;;;5005326;28;20041;-74
2022/06/10 04:48:24;;;;;;;32.65;29.45;;;10.70;99.90;;;;;;5025243;28;20143;-73
2022/06/10 04:50:51;;;;;;;35.63;32.30;;;11.10;99.90;;;;;;4978800;28;20064;-73
2022/06/10 04:53:17;;;;;;;36.20;33.00;;;11.50;99.90;;;;;;4970906;28;20174;-74
2022/06/10 04:55:44;;;;;;;39.13;35.38;;;11.90;99.90;;;;;;4984322;28;20512;-75
2022/06/10 04:58:12;;;;;;;39.35;35.90;;;12.20;99.90;;;;;;4993116;28;20464;-73
2022/06/10 05:00:43;;;;;;;39.78;36.08;;;12.20;99.90;;;;;;4983368;28;20127;-73
2022/06/10 05:03:10;;;;;;;35.30;32.28;;;12.40;99.90;;;;;;5003909;28;20590;-74
2022/06/10 05:05:38;;;;;;;34.65;31.35;;;12.70;99.90;;;;;;5003349;28;20054;-74
2022/06/10 05:08:06;;;;;;;35.15;31.85;;;13.00;99.90;;;;;;4977693;28;20108;-74
2022/06/10 05:10:34;;;;;;;35.80;32.70;;;13.40;99.90;;;;;;4983741;28;20069;-74
2022/06/10 05:13:01;;;;;;;35.42;32.42;;;13.80;99.90;;;;;;5005257;28;20574;-74
2022/06/10 05:15:28;;;;;;;36.90;33.65;;;14.00;99.90;;;;;;5005515;28;20508;-74
2022/06/10 05:17:57;;;;;;;35.40;32.30;;;14.30;99.90;;;;;;5004375;28;20064;-75
2022/06/10 05:20:34;;;;;;;36.38;33.15;;;14.60;99.90;;;;;;5001507;28;20038;-77
2022/06/10 05:23:02;;;;;;;34.92;31.77;;;14.70;99.90;;;;;;4986445;28;20700;-73
2022/06/10 05:25:29;;;;;;;35.58;32.40;;;14.70;99.90;;;;;;4998568;28;20042;-74
2022/06/10 05:27:56;;;;;;;35.70;32.70;;;14.80;99.90;;;;;;4981854;28;20172;-74
2022/06/10 05:30:26;;;;;;;35.35;32.05;;;15.10;99.90;;;;;;5000214;28;20100;-74
2022/06/10 05:32:53;;;;;;;34.90;31.60;;;15.30;99.90;;;;;;4984860;28;20417;-75
2022/06/10 05:35:20;;;;;;;35.30;32.25;;;15.40;99.90;;;;;;4985422;28;20053;-74
2022/06/10 05:37:47;;;;;;;35.50;32.45;;;15.60;99.90;;;;;;4978869;28;20077;-73
2022/06/10 05:40:22;;;;;;;34.92;31.88;;;15.80;99.90;;;;;;4984147;28;20050;-74
2022/06/10 05:42:50;;;;;;;35.03;31.85;;;16.40;99.90;;;;;;5001314;28;20248;-74
2022/06/10 05:45:18;;;;;;;35.55;32.45;;;16.70;99.90;;;;;;4985045;28;20465;-73
2022/06/10 05:47:48;;;;;;;35.05;32.00;;;16.90;99.90;;;;;;4969924;28;20054;-75
2022/06/10 05:50:21;;;;;;;35.83;32.95;;;17.20;99.90;;;;;;4979341;28;20053;-73
2022/06/10 05:52:48;;;;;;;37.10;34.08;;;17.50;99.90;;;;;;4981987;28;20770;-73
2022/06/10 05:55:16;;;;;;;35.20;32.17;;;17.60;99.90;;;;;;5001779;28;20263;-73
2022/06/10 05:57:43;;;;;;;36.13;33.33;;;17.60;99.90;;;;;;4982740;28;20067;-73
2022/06/10 06:00:15;;;;;;;36.85;33.72;;;17.70;99.90;;;;;;4978795;28;20046;-73
2022/06/10 06:02:42;;;;;;;35.92;33.00;;;17.70;99.90;;;;;;5001965;28;20053;-73
2022/06/10 06:05:10;;;;;;;37.15;34.15;;;18.10;99.90;;;;;;5003280;28;20461;-73
2022/06/10 06:07:39;;;;;;;35.60;33.05;;;18.20;99.90;;;;;;4996899;28;20572;-73
2022/06/10 06:10:10;;;;;;;37.13;33.78;;;18.30;99.90;;;;;;4989033;28;20054;-73
2022/06/10 06:12:37;;;;;;;36.33;33.55;;;18.60;99.90;;;;;;4987019;28;20053;-73
2022/06/10 06:15:04;;;;;;;37.28;33.97;;;18.60;99.90;;;;;;5002628;28;20061;-73
2022/06/10 06:17:31;;;;;;;35.83;32.67;;;18.60;99.90;;;;;;4969173;28;20078;-73
2022/06/10 06:19:58;;;;;;;33.47;30.90;;;18.90;99.90;;;;;;5000454;28;20046;-73
2022/06/10 06:22:24;;;;;;;34.80;32.22;;;19.50;99.90;;;;;;4990120;28;20043;-73
2022/06/10 06:24:53;;;;;;;35.30;32.58;;;19.80;99.90;;;;;;5003122;22;20551;-77
2022/06/10 06:27:20;;;;;;;34.60;31.83;;;19.90;99.90;;;;;;4989857;28;20112;-76
2022/06/10 06:29:47;;;;;;;34.85;32.47;;;20.20;99.90;;;;;;4987881;28;20108;-77
2022/06/10 06:32:14;;;;;;;34.25;31.52;;;20.50;99.90;;;;;;4985594;28;20746;-76
2022/06/10 06:34:40;;;;;;;33.92;30.83;;;20.30;99.90;;;;;;4988014;28;20606;-77
2022/06/10 06:37:11;;;;;;;33.88;30.85;;;20.30;99.90;;;;;;5008611;28;20232;-77
2022/06/10 06:39:38;;;;;;;34.55;31.85;;;20.40;99.90;;;;;;4987549;28;20081;-77
2022/06/10 06:42:05;;;;;;;33.63;30.77;;;20.30;99.90;;;;;;4990874;28;20050;-77
2022/06/10 06:44:41;;;;;;;33.25;30.48;;;20.00;99.90;;;;;;4973785;28;20147;-78
2022/06/10 06:47:28;;;;;;;33.50;30.90;;;20.00;99.90;;;;;;4988090;28;20049;-72
2022/06/10 06:49:54;;;;;;;32.50;30.02;;;20.00;99.90;;;;;;4979876;28;20857;-73
2022/06/10 06:52:21;;;;;;;32.85;30.25;;;20.00;99.90;;;;;;4988606;28;20066;-73
2022/06/10 06:54:48;;;;;;;31.15;28.83;;;19.90;99.90;;;;;;4989187;28;20069;-73
2022/06/10 06:57:15;;;;;;;30.13;27.60;;;19.90;99.90;;;;;;4995947;28;20042;-72
2022/06/10 06:59:42;;;;;;;30.23;27.98;;;20.10;99.90;;;;;;4990746;28;20124;-73
2022/06/10 07:02:10;;;;;;;29.63;27.38;;;20.30;99.90;;;;;;4993158;28;20062;-72
2022/06/10 07:04:38;;;;;;;28.38;25.95;;;20.30;99.90;;;;;;4967632;28;20595;-73
2022/06/10 07:07:05;;;;;;;27.23;25.45;;;20.30;99.90;;;;;;4967078;28;20046;-73
2022/06/10 07:09:32;;;;;;;28.50;26.40;;;20.20;99.90;;;;;;4984269;28;20051;-73
2022/06/10 07:11:58;;;;;;;27.85;25.60;;;20.20;99.90;;;;;;4995718;28;20053;-72
2022/06/10 07:14:25;;;;;;;27.75;25.63;;;20.10;99.90;;;;;;4969905;28;20616;-73
2022/06/10 07:16:52;;;;;;;27.98;25.58;;;20.20;99.90;;;;;;4969760;28;20085;-73
2022/06/10 07:19:21;;;;;;;27.50;25.25;;;20.40;99.90;;;;;;4991376;28;20081;-72
2022/06/10 07:21:48;;;;;;;27.33;25.17;;;20.40;99.90;;;;;;4979466;28;20618;-73
2022/06/10 07:24:20;;;;;;;28.67;26.48;;;20.10;99.90;;;;;;5004405;28;20049;-72
2022/06/10 07:26:47;;;;;;;28.13;25.63;;;20.20;99.90;;;;;;4988814;28;20483;-73
2022/06/10 07:29:14;;;;;;;27.58;25.33;;;20.70;99.90;;;;;;4998456;28;20049;-72
2022/06/10 07:31:41;;;;;;;27.25;24.83;;;20.80;99.90;;;;;;4983808;28;20093;-73
2022/06/10 07:34:09;;;;;;;26.67;24.67;;;20.90;99.90;;;;;;4992752;28;20156;-73
2022/06/10 07:36:37;;;;;;;26.55;24.52;;;20.80;99.90;;;;;;4986926;28;20104;-73
2022/06/10 07:39:04;;;;;;;27.30;25.02;;;20.80;99.90;;;;;;4969559;28;20177;-73
2022/06/10 07:44:20;;;;;;;27.10;24.83;;;20.70;99.90;;;;;;4999881;28;20053;-73
2022/06/10 07:46:48;;;;;;;25.75;23.83;;;20.70;99.90;;;;;;5006332;28;20782;-73
2022/06/10 07:49:16;;;;;;;27.42;25.30;;;20.70;99.90;;;;;;5006201;28;20054;-72
2022/06/10 07:51:43;;;;;;;27.90;25.42;;;20.80;99.90;;;;;;4981690;28;20080;-73
2022/06/10 07:54:11;;;;;;;26.23;24.10;;;20.70;99.90;;;;;;5004108;28;20058;-72
2022/06/10 07:56:39;;;;;;;24.17;22.10;;;20.40;99.90;;;;;;5004468;28;20058;-72
2022/06/10 07:59:07;;;;;;;27.17;24.90;;;20.30;99.90;;;;;;4994870;28;20116;-72
2022/06/10 08:01:34;;;;;;;25.27;23.45;;;20.60;99.90;;;;;;4976953;28;20681;-72
2022/06/10 08:04:01;;;;;;;25.08;23.05;;;20.90;99.90;;;;;;4970017;28;20062;-73
2022/06/10 08:06:30;;;;;;;25.23;23.63;;;21.00;99.90;;;;;;5000108;28;20058;-72
2022/06/10 08:08:56;;;;;;;24.38;22.35;;;21.00;99.90;;;;;;4985976;28;20808;-72
2022/06/10 08:11:23;;;;;;;26.33;23.88;;;21.10;99.90;;;;;;4986424;28;20108;-71
2022/06/10 08:13:50;;;;;;;25.25;23.25;;;21.30;99.90;;;;;;4995427;28;20502;-71
2022/06/10 08:16:18;;;;;;;25.88;23.52;;;20.90;99.90;;;;;;4985344;28;20085;-71
2022/06/10 08:18:46;;;;;;;24.55;22.48;;;20.60;99.90;;;;;;4985854;28;20058;-75
2022/06/10 08:24:02;;;;;;;22.95;21.48;;;20.60;99.90;;;;;;4986282;28;20054;-75
2022/06/10 08:26:29;;;;;;;25.63;23.00;;;20.70;99.90;;;;;;5005957;28;20050;-73
2022/06/10 08:28:58;;;;;;;24.00;22.35;;;21.10;99.90;;;;;;4993629;28;20053;-72
2022/06/10 08:31:25;;;;;;;25.38;23.33;;;21.50;99.90;;;;;;4993565;28;20088;-74
2022/06/10 08:33:52;;;;;;;24.27;22.20;;;21.90;99.90;;;;;;4992977;28;20089;-74
2022/06/10 08:36:19;;;;;;;26.05;23.50;;;21.90;99.90;;;;;;4968605;28;20069;-74
2022/06/10 08:38:50;;;;;;;24.52;22.48;;;22.00;99.90;;;;;;4989691;28;20050;-72
2022/06/10 08:41:23;;;;;;;25.33;23.30;;;22.10;99.90;;;;;;5000197;28;20046;-73
2022/06/10 08:44:23;;;;;;;23.63;21.77;;;22.20;99.90;;;;;;4986822;28;20081;-73
2022/06/10 08:47:25;;;;;;;26.52;24.08;;;21.90;99.90;;;;;;5004073;28;20053;-73
2022/06/10 08:50:33;;;;;;;23.83;21.67;;;21.10;99.90;;;;;;5002950;28;20179;-74
2022/06/10 08:53:18;;;;;;;22.05;20.48;;;20.60;99.90;;;;;;4942154;29;20470;-73
2022/06/10 08:56:09;;;;;;;24.35;22.30;;;20.30;99.90;;;;;;4942226;29;20102;-74
2022/06/10 08:58:54;;;;;;;24.02;22.23;;;20.10;99.90;;;;;;4983267;28;20054;-74
2022/06/10 09:01:23;;;;;;;23.60;21.70;;;20.00;99.90;;;;;;4995588;28;20680;-74
2022/06/10 09:04:19;;;;;;;26.65;24.17;;;20.00;99.90;;;;;;5000472;28;20057;-75
2022/06/10 09:07:00;;;;;;;24.77;22.27;;;19.80;99.90;;;;;;5004340;28;20054;-74
2022/06/10 09:09:29;;;;;;;24.77;23.08;;;20.00;99.90;;;;;;5004097;28;20100;-73
2022/06/10 09:12:17;;;;;;;23.88;22.17;;;20.00;99.90;;;;;;4992894;28;20475;-73
2022/06/10 09:14:44;;;;;;;21.98;20.20;;;20.50;99.90;;;;;;4966199;28;20046;-74
2022/06/10 09:17:24;;;;;;;24.00;21.90;;;21.10;99.90;;;;;;4967360;28;20109;-73
2022/06/10 09:20:18;;;;;;;25.10;22.52;;;21.50;99.90;;;;;;4990365;28;20081;-73
2022/06/10 09:22:51;;;;;;;23.70;21.77;;;21.30;99.90;;;;;;4967612;28;20078;-74
2022/06/10 09:25:24;;;;;;;24.45;22.33;;;20.80;99.90;;;;;;5001505;28;20050;-74
2022/06/10 09:27:55;;;;;;;26.85;24.35;;;20.60;99.90;;;;;;4996898;28;20058;-73
2022/06/10 09:30:28;;;;;;;26.13;23.65;;;20.50;99.90;;;;;;4991864;28;20508;-73
2022/06/10 09:33:10;;;;;;;24.50;22.55;;;20.80;99.90;;;;;;4961024;28;20077;-73
2022/06/10 09:35:41;;;;;;;23.98;22.02;;;20.80;99.90;;;;;;4966564;28;20038;-74
2022/06/10 09:38:42;;;;;;;25.23;22.98;;;20.60;99.90;;;;;;4966861;28;20081;-74
2022/06/10 09:41:12;;;;;;;27.17;24.90;;;20.50;99.90;;;;;;4983002;28;20077;-72
2022/06/10 09:44:21;;;;;;;26.10;23.85;;;20.40;99.90;;;;;;4984100;28;20852;-73
2022/06/10 09:47:07;;;;;;;24.40;22.08;;;21.40;99.90;;;;;;4933069;28;20050;-72
2022/06/10 09:49:42;;;;;;;;;;;21.90;99.90;;;;;;4995124;28;20046;-73
2022/06/10 09:52:32;;;;;;;22.90;21.20;;;21.50;99.90;;;;;;4995159;28;19937;-75
2022/06/10 09:55:24;;;;;;;24.63;22.10;;;21.00;99.90;;;;;;4965742;28;20710;-73
2022/06/10 09:58:27;;;;;;;24.75;22.23;;;20.90;99.90;;;;;;4988583;28;20078;-73
2022/06/10 10:01:23;;;;;;;22.70;20.95;;;21.40;99.90;;;;;;4990748;28;20265;-74
2022/06/10 10:03:58;;;;;;;21.88;19.98;;;21.80;99.90;;;;;;4986860;28;20120;-74
2022/06/10 10:06:34;;;;;;;24.08;22.35;;;21.90;99.90;;;;;;4966420;28;20069;-74
2022/06/10 10:09:19;;;;;;;23.52;21.73;;;21.90;99.90;;;;;;4966415;28;20070;-74
2022/06/10 10:12:08;;;;;;;22.58;21.02;;;22.00;99.90;;;;;;5000970;28;20111;-74
2022/06/10 10:14:47;;;;;;;21.52;19.63;;;22.10;99.90;;;;;;5006754;28;20586;-73
2022/06/10 10:17:53;;;;;;;23.35;21.02;;;22.30;99.90;;;;;;5000800;28;20528;-73
2022/06/10 10:20:39;;;;;;;;;;;22.10;99.90;;;;;;4974995;28;20077;-74
2022/06/10 10:23:49;;;;;;;22.55;20.67;;;21.60;99.90;;;;;;4983302;28;19965;-73
2022/06/10 10:26:32;;;;;;;23.58;21.63;;;21.40;99.90;;;;;;4982701;28;20042;-72
2022/06/10 10:29:07;;;;;;;22.77;21.20;;;21.80;99.90;;;;;;4994642;28;20495;-72
2022/06/10 10:31:38;;;;;;;24.23;22.38;;;22.60;99.90;;;;;;4994251;28;20050;-73
2022/06/10 10:34:06;;;;;;;21.67;19.98;;;23.00;99.90;;;;;;4982081;28;20108;-73
2022/06/10 10:36:47;;;;;;;22.13;20.38;;;22.90;99.90;;;;;;4999995;28;20202;-73
2022/06/10 10:39:16;;;;;;;21.83;19.85;;;22.50;99.90;;;;;;4996655;28;20048;-74
2022/06/10 10:41:47;;;;;;;22.30;20.50;;;22.10;99.90;;;;;;4966723;28;20043;-75
2022/06/10 10:44:32;;;;;;;23.05;21.42;;;22.10;99.90;;;;;;4986530;28;20069;-75
2022/06/10 10:47:08;;;;;;;24.42;22.70;;;21.90;99.90;;;;;;4984243;28;20054;-72
2022/06/10 10:49:44;;;;;;;23.98;22.08;;;22.10;99.90;;;;;;4974008;28;20042;-75
2022/06/10 10:52:20;;;;;;;23.02;21.42;;;22.50;99.90;;;;;;4998102;28;20053;-73
2022/06/10 10:54:51;;;;;;;23.23;21.42;;;22.50;99.90;;;;;;4988445;28;20088;-74
2022/06/10 10:57:29;;;;;;;24.20;22.42;;;22.60;99.90;;;;;;4986494;28;20046;-73
2022/06/10 11:00:29;;;;;;;22.55;20.95;;;22.70;99.90;;;;;;4978216;28;20500;-74
2022/06/10 11:03:01;;;;;;;23.23;21.63;;;22.80;99.90;;;;;;4994357;28;20132;-73
2022/06/10 11:05:37;;;;;;;23.42;21.55;;;22.80;99.90;;;;;;5006334;28;20448;-74
2022/06/10 11:08:17;;;;;;;22.92;20.80;;;22.60;99.90;;;;;;5006470;28;20054;-72
2022/06/10 11:10:55;;;;;;;22.85;21.25;;;22.50;99.90;;;;;;5006389;28;20053;-74
2022/06/10 11:13:51;;;;;;;22.15;20.63;;;22.90;99.90;;;;;;4997077;28;20046;-73
2022/06/10 11:16:23;;;;;;;22.42;20.75;;;23.30;99.90;;;;;;4989261;28;20051;-73
2022/06/10 11:18:52;;;;;;;22.30;20.73;;;23.10;99.90;;;;;;4970253;28;20054;-75
2022/06/10 11:21:23;;;;;;;24.10;22.13;;;22.70;99.90;;;;;;4979707;28;20063;-75
2022/06/10 11:23:53;;;;;;;22.75;21.20;;;22.50;99.90;;;;;;4994963;28;20046;-75
2022/06/10 11:26:22;;;;;;;23.80;22.25;;;22.70;99.90;;;;;;5004977;28;20045;-73
2022/06/10 11:28:58;;;;;;;25.38;22.88;;;22.60;99.90;;;;;;4994975;28;20061;-74
2022/06/10 11:31:38;;;;;;;23.52;21.73;;;22.70;99.90;;;;;;4990033;28;20038;-74
2022/06/10 11:34:19;;;;;;;27.23;24.85;;;22.70;99.90;;;;;;4998876;28;20167;-74
2022/06/10 11:36:50;;;;;;;25.00;22.88;;;22.70;99.90;;;;;;5005962;28;20069;-74
2022/06/10 11:39:25;;;;;;;24.10;22.45;;;23.10;99.90;;;;;;4998316;28;20073;-74
2022/06/10 11:42:07;;;;;;;25.65;23.48;;;23.30;99.90;;;;;;4968644;28;20073;-74
2022/06/10 11:44:42;;;;;;;23.58;21.80;;;23.10;99.90;;;;;;4994002;28;20682;-75
2022/06/10 11:47:34;;;;;;;23.67;22.02;;;23.00;99.90;;;;;;5005789;28;20513;-73
2022/06/10 11:50:20;;;;;;;23.23;21.40;;;23.20;99.90;;;;;;4982746;28;20094;-75
2022/06/10 11:52:58;;;;;;;25.05;22.60;;;23.20;99.90;;;;;;4992929;28;20050;-75
2022/06/10 11:55:33;;;;;;;24.45;22.50;;;23.30;99.90;;;;;;4981752;28;20504;-73
2022/06/10 12:01:13;;;;;;;23.55;21.60;;;23.40;99.90;;;;;;4991820;28;20050;-74
2022/06/10 12:03:50;;;;;;;24.42;22.02;;;23.60;99.90;;;;;;4996997;28;20638;-75
2022/06/10 12:06:36;;;;;;;25.58;23.30;;;23.80;99.90;;;;;;4985861;28;20053;-73
2022/06/10 12:09:15;;;;;;;;;;;23.80;99.90;;;;;;4970190;28;20117;-74
2022/06/10 12:11:47;;;;;;;24.38;22.80;;;23.90;99.90;;;;;;5001246;28;19921;-73
2022/06/10 12:14:23;;;;;;;24.55;22.75;;;24.30;99.90;;;;;;4969942;28;20058;-74
2022/06/10 12:16:57;;;;;;;23.55;21.98;;;24.30;99.90;;;;;;4984722;28;20062;-73
2022/06/10 12:19:30;;;;;;;24.03;22.13;;;24.40;99.90;;;;;;4989109;28;20054;-74
2022/06/10 12:21:57;;;;;;;24.67;22.88;;;24.20;99.90;;;;;;4991434;28;20104;-72
2022/06/10 12:24:25;;;;;;;22.80;21.17;;;24.20;99.90;;;;;;5024730;22;20586;31
2022/06/10 12:26:58;;;;;;;25.23;23.13;;;23.90;99.90;;;;;;5011883;28;20045;-73
2022/06/10 12:29:41;;;;;;;23.58;22.17;;;23.60;99.90;;;;;;5012628;28;20254;-73
2022/06/10 12:32:42;;;;;;;24.45;22.63;;;23.50;99.90;;;;;;5002575;28;20049;-73
2022/06/10 12:35:22;;;;;;;24.42;22.70;;;23.80;99.90;;;;;;4998770;28;20136;-73
2022/06/10 12:37:54;;;;;;;25.63;23.55;;;23.80;99.90;;;;;;5035282;28;20046;-73
2022/06/10 12:40:28;;;;;;;24.77;23.02;;;23.90;99.90;;;;;;5003280;28;20058;-73
2022/06/10 12:42:58;;;;;;;25.05;22.88;;;23.90;99.90;;;;;;5003691;28;20472;-73
2022/06/10 12:45:37;;;;;;;25.00;23.13;;;24.10;99.90;;;;;;4998438;28;20038;-73
2022/06/10 12:48:17;;;;;;;25.05;23.48;;;24.30;99.90;;;;;;5037965;28;20492;-73
2022/06/10 12:50:51;;;;;;;24.58;22.90;;;24.60;99.90;;;;;;5021906;28;20057;-73
2022/06/10 12:53:51;;;;;;;25.73;23.92;;;24.40;99.90;;;;;;5001364;28;20050;-73
2022/06/10 12:56:20;;;;;;;25.92;23.92;;;24.20;99.90;;;;;;5022662;28;20422;-73
2022/06/10 12:58:52;;;;;;;25.27;23.17;;;23.90;99.90;;;;;;5002933;28;20050;-73
2022/06/10 13:01:20;;;;;;;23.60;22.00;;;24.20;99.90;;;;;;5001710;28;20077;-73
2022/06/10 13:03:53;;;;;;;23.20;21.63;;;24.50;99.90;;;;;;5001353;28;20060;-73
2022/06/10 13:06:31;;;;;;;23.42;21.83;;;24.10;99.90;;;;;;5004204;28;20057;-73
2022/06/10 13:09:18;;;;;;;24.90;23.23;;;23.80;99.90;;;;;;5018915;28;20049;-72
2022/06/10 13:11:52;;;;;;;23.00;21.30;;;23.80;99.90;;;;;;5002460;28;20049;-73
2022/06/10 13:14:33;;;;;;;22.90;20.98;;;23.80;99.90;;;;;;5001678;28;20768;-73
2022/06/10 13:16:59;;;;;;;22.08;20.80;;;23.60;99.90;;;;;;5001469;28;20061;-72
2022/06/10 13:19:42;;;;;;;23.05;21.40;;;23.50;99.90;;;;;;5002160;28;20104;-73